Time;durP1;ratioP1;P1;durP2;ratioP2;P2;SDS_P1;SDS_P2;PMS_P1;PMS_P2;Temp;Humidity;BMP_temperature;BMP_pressure;BME280_temperature;BME280_humidity;BME280_pressure;Samples;Min_cycle;Max_cycle;Signal;HPM_P1;HPM_P2
2022/08/15 00:01:07;;;;;;;11.70;10.70;;;23.20;99.90;;;;;;5114698;28;20446;-60
2022/08/15 00:03:37;;;;;;;12.23;11.03;;;23.10;99.90;;;;;;5114654;28;20813;-60
2022/08/15 00:06:07;;;;;;;12.77;11.73;;;23.10;99.90;;;;;;5114440;28;20786;-60
2022/08/15 00:08:38;;;;;;;12.17;10.90;;;22.90;99.90;;;;;;5114518;28;20848;-60
2022/08/15 00:11:11;;;;;;;12.67;11.47;;;22.90;99.90;;;;;;5114555;28;21043;-60
2022/08/15 00:13:39;;;;;;;12.50;11.40;;;22.90;99.90;;;;;;5114440;28;20536;-61
2022/08/15 00:16:07;;;;;;;12.83;11.63;;;22.90;99.90;;;;;;5114306;28;20477;-60
2022/08/15 00:18:34;;;;;;;13.40;11.53;;;23.00;99.90;;;;;;5114198;28;20541;-61
2022/08/15 00:21:03;;;;;;;13.53;11.37;;;23.00;99.90;;;;;;5114386;28;20450;-61
2022/08/15 00:23:29;;;;;;;12.80;11.57;;;23.10;99.90;;;;;;5114038;28;20960;-60
2022/08/15 00:26:00;;;;;;;13.00;11.80;;;23.20;99.90;;;;;;5114185;28;20450;-60
2022/08/15 00:28:29;;;;;;;12.20;11.20;;;23.10;99.90;;;;;;5114105;28;20495;-60
2022/08/15 00:30:56;;;;;;;12.07;11.00;;;23.20;99.90;;;;;;5113991;28;20445;-61
2022/08/15 00:33:22;;;;;;;13.90;12.70;;;23.10;99.90;;;;;;5114186;28;20451;-60
2022/08/15 00:35:51;;;;;;;13.23;12.10;;;22.90;99.90;;;;;;5114127;28;20446;-61
2022/08/15 00:38:21;;;;;;;12.53;11.53;;;22.70;99.90;;;;;;5114101;28;20817;-60
2022/08/15 00:43:40;;;;;;;17.10;11.93;;;22.50;99.90;;;;;;5113834;28;20428;-60
2022/08/15 00:46:10;;;;;;;13.03;11.90;;;22.50;99.90;;;;;;5114007;28;20852;-60
2022/08/15 00:48:42;;;;;;;13.27;12.07;;;22.40;99.90;;;;;;5113564;28;20496;-60
2022/08/15 00:51:19;;;;;;;11.70;10.70;;;22.20;99.90;;;;;;5113760;28;20548;-60
2022/08/15 00:53:49;;;;;;;13.67;12.37;;;22.30;99.90;;;;;;5113663;28;20995;-60
2022/08/15 00:56:16;;;;;;;13.13;11.93;;;22.40;99.90;;;;;;5113610;28;20553;-60
2022/08/15 00:58:45;;;;;;;14.87;13.43;;;22.40;99.90;;;;;;5113159;28;20477;-61
2022/08/15 01:01:14;;;;;;;13.57;12.47;;;22.20;99.90;;;;;;5113567;28;20453;-60
2022/08/15 01:03:45;;;;;;;13.17;12.13;;;22.10;99.90;;;;;;5113621;28;20477;-60
2022/08/15 01:06:13;;;;;;;14.00;12.63;;;22.00;99.90;;;;;;5113560;28;20816;-60
2022/08/15 01:08:43;;;;;;;15.20;13.20;;;22.10;99.90;;;;;;5113292;28;20582;-60
2022/08/15 01:11:15;;;;;;;13.57;12.27;;;22.00;99.90;;;;;;5113641;28;20450;-60
2022/08/15 01:13:43;;;;;;;13.23;12.23;;;21.90;99.90;;;;;;5113634;28;20506;-60
2022/08/15 01:16:11;;;;;;;14.20;12.97;;;21.90;99.90;;;;;;5113484;28;20529;-60
2022/08/15 01:18:38;;;;;;;14.30;13.20;;;21.80;99.90;;;;;;5113421;28;20849;-60
2022/08/15 01:21:13;;;;;;;13.90;12.70;;;21.70;99.90;;;;;;5113242;28;20538;-60
2022/08/15 01:23:51;;;;;;;14.73;13.40;;;21.70;99.90;;;;;;5113557;28;20451;-60
2022/08/15 01:26:21;;;;;;;14.40;13.00;;;21.80;99.90;;;;;;5113494;28;20441;-60
2022/08/15 01:28:47;;;;;;;14.63;13.37;;;21.80;99.90;;;;;;5113358;28;20481;-60
2022/08/15 01:31:17;;;;;;;14.13;12.77;;;21.70;99.90;;;;;;5113164;28;20452;-60
2022/08/15 01:33:48;;;;;;;13.43;12.23;;;21.50;99.90;;;;;;5113103;28;20552;-60
2022/08/15 01:36:15;;;;;;;14.87;13.47;;;21.50;99.90;;;;;;5113362;28;20453;-61
2022/08/15 01:38:45;;;;;;;13.70;12.60;;;21.70;99.90;;;;;;5113366;28;20540;-60
2022/08/15 01:41:20;;;;;;;14.17;12.80;;;21.70;99.90;;;;;;5113280;28;20456;-60
2022/08/15 01:43:55;;;;;;;13.83;12.70;;;21.60;99.90;;;;;;5113167;28;20540;-60
2022/08/15 01:46:23;;;;;;;13.90;12.60;;;21.70;99.90;;;;;;5113083;28;20429;-60
2022/08/15 01:48:55;;;;;;;13.30;12.30;;;21.60;99.90;;;;;;5112851;28;20509;-60
2022/08/15 01:51:22;;;;;;;16.00;13.03;;;21.50;99.90;;;;;;5113272;28;20941;-60
2022/08/15 01:53:54;;;;;;;14.80;13.70;;;21.50;99.90;;;;;;5113119;28;20453;-60
2022/08/15 01:56:26;;;;;;;16.53;13.83;;;21.40;99.90;;;;;;5113119;28;20450;-61
2022/08/15 01:58:54;;;;;;;13.90;12.73;;;21.50;99.90;;;;;;5113389;28;20453;-60
2022/08/15 02:01:35;;;;;;;15.30;13.80;;;21.60;99.90;;;;;;5113269;28;20446;-60
2022/08/15 02:04:02;;;;;;;14.27;12.97;;;21.70;99.90;;;;;;5113271;28;20528;-60
2022/08/15 02:06:29;;;;;;;14.73;13.13;;;21.70;99.90;;;;;;5112982;28;20448;-60
2022/08/15 02:08:56;;;;;;;14.47;13.10;;;21.80;99.90;;;;;;5112765;28;20478;-61
2022/08/15 02:11:26;;;;;;;14.10;12.73;;;21.80;99.90;;;;;;5115558;28;20460;-61
2022/08/15 02:13:56;;;;;;;24.87;13.80;;;21.90;99.90;;;;;;5116793;28;20449;-60
2022/08/15 02:16:25;;;;;;;14.00;12.70;;;21.90;99.90;;;;;;5116782;27;20859;-60
2022/08/15 02:18:52;;;;;;;13.70;12.40;;;22.00;99.90;;;;;;5116655;28;20543;-60
2022/08/15 02:21:18;;;;;;;14.23;12.83;;;22.20;99.90;;;;;;5116654;28;20449;-61
2022/08/15 02:23:45;;;;;;;14.37;13.03;;;22.30;99.90;;;;;;5116477;28;21018;-60
2022/08/15 02:26:11;;;;;;;15.33;13.13;;;22.10;99.90;;;;;;5116579;28;20462;-61
2022/08/15 02:28:41;;;;;;;15.50;14.20;;;22.10;99.90;;;;;;5116472;28;20491;-60
2022/08/15 02:31:15;;;;;;;14.93;13.70;;;22.00;99.90;;;;;;5116506;28;20445;-60
2022/08/15 02:33:42;;;;;;;15.53;14.23;;;21.80;99.90;;;;;;5116445;28;20785;-60
2022/08/15 02:36:09;;;;;;;14.80;13.63;;;21.90;99.90;;;;;;5116261;28;20962;-60
2022/08/15 02:38:35;;;;;;;14.87;13.63;;;22.10;99.90;;;;;;5116386;28;20452;-60
2022/08/15 02:41:02;;;;;;;15.43;14.03;;;22.00;99.90;;;;;;5116322;28;20452;-61
2022/08/15 02:43:28;;;;;;;14.73;13.33;;;21.90;99.90;;;;;;5116277;28;20450;-60
2022/08/15 02:45:59;;;;;;;14.50;13.30;;;22.00;99.90;;;;;;5116228;28;20452;-60
2022/08/15 02:48:27;;;;;;;15.20;13.80;;;22.10;99.90;;;;;;5115795;28;20509;-61
2022/08/15 02:50:53;;;;;;;15.43;14.00;;;22.10;99.90;;;;;;5115978;28;20449;-60
2022/08/15 02:53:20;;;;;;;16.43;14.90;;;22.20;99.90;;;;;;5116109;28;20449;-61
2022/08/15 02:55:48;;;;;;;16.70;14.97;;;21.80;99.90;;;;;;5116028;28;21012;-60
2022/08/15 02:58:16;;;;;;;15.07;13.60;;;21.60;99.90;;;;;;5115939;28;20449;-60
2022/08/15 03:00:45;;;;;;;15.60;14.30;;;21.70;99.90;;;;;;5115935;27;20450;-60
2022/08/15 03:03:14;;;;;;;16.03;14.73;;;21.80;99.90;;;;;;5115690;27;21084;-61
2022/08/15 03:05:45;;;;;;;15.33;14.03;;;21.80;99.90;;;;;;5115932;28;20449;-60
2022/08/15 03:08:12;;;;;;;15.43;14.23;;;21.90;99.90;;;;;;5116003;28;20480;-60
2022/08/15 03:10:39;;;;;;;14.90;13.43;;;22.00;99.90;;;;;;5115719;28;20570;-60
2022/08/15 03:13:10;;;;;;;15.20;13.83;;;21.90;99.90;;;;;;5115664;28;20445;-60
2022/08/15 03:15:41;;;;;;;16.30;14.57;;;21.90;99.90;;;;;;5115469;28;20449;-60
2022/08/15 03:18:08;;;;;;;16.30;14.70;;;22.00;99.90;;;;;;5115776;28;20793;-60
2022/08/15 03:20:35;;;;;;;16.83;15.27;;;21.90;99.90;;;;;;5115526;28;20452;-60
2022/08/15 03:23:07;;;;;;;17.23;14.80;;;22.00;99.90;;;;;;5114762;28;20441;-60
2022/08/15 03:25:38;;;;;;;15.20;13.90;;;21.80;99.90;;;;;;5115453;28;20860;-60
2022/08/15 03:28:05;;;;;;;17.83;14.53;;;21.70;99.90;;;;;;5115234;28;20500;-61
2022/08/15 03:30:32;;;;;;;18.40;16.70;;;21.60;99.90;;;;;;5115111;28;20451;-60
2022/08/15 03:33:00;;;;;;;17.00;15.30;;;21.40;99.90;;;;;;5115246;28;20442;-61
2022/08/15 03:35:30;;;;;;;17.23;15.53;;;21.30;99.90;;;;;;5115186;28;20532;-60
2022/08/15 03:37:57;;;;;;;15.00;13.70;;;21.50;99.90;;;;;;5115139;28;20504;-60
2022/08/15 03:40:26;;;;;;;16.70;15.10;;;21.50;99.90;;;;;;5114995;28;20536;-60
2022/08/15 03:42:55;;;;;;;16.67;15.17;;;21.60;99.90;;;;;;5114870;28;20445;-60
2022/08/15 03:45:22;;;;;;;15.70;14.40;;;21.70;99.90;;;;;;5114991;28;20450;-61
2022/08/15 03:47:48;;;;;;;16.30;14.70;;;21.80;99.90;;;;;;5114704;28;20480;-60
2022/08/15 03:50:16;;;;;;;16.90;15.40;;;21.60;99.90;;;;;;5114778;28;20481;-60
2022/08/15 03:52:52;;;;;;;16.17;14.47;;;21.60;99.90;;;;;;5114767;28;20565;-60
2022/08/15 03:55:20;;;;;;;17.77;16.27;;;21.40;99.90;;;;;;5114623;28;20459;-60
2022/08/15 03:57:49;;;;;;;18.40;16.50;;;21.20;99.90;;;;;;5114677;28;20928;-60
2022/08/15 04:00:19;;;;;;;17.37;15.63;;;21.30;99.90;;;;;;5114780;28;20817;-60
2022/08/15 04:02:45;;;;;;;17.70;16.07;;;21.30;99.90;;;;;;5114671;28;20552;-60
2022/08/15 04:05:12;;;;;;;17.97;16.03;;;21.00;99.90;;;;;;5114533;28;20445;-60
2022/08/15 04:07:39;;;;;;;17.50;15.90;;;21.00;99.90;;;;;;5114339;28;20865;-60
2022/08/15 04:10:09;;;;;;;17.90;16.27;;;21.00;99.90;;;;;;5114512;28;20481;-60
2022/08/15 04:12:38;;;;;;;17.90;16.30;;;20.80;99.90;;;;;;5114523;28;20446;-60
2022/08/15 04:15:11;;;;;;;18.07;16.37;;;20.90;99.90;;;;;;5114392;28;20528;-60
2022/08/15 04:17:38;;;;;;;18.33;16.70;;;20.90;99.90;;;;;;5114286;28;20445;-60
2022/08/15 04:20:06;;;;;;;17.63;16.00;;;20.90;99.90;;;;;;5114244;28;20794;-61
2022/08/15 04:22:35;;;;;;;17.07;15.43;;;20.90;99.90;;;;;;5114136;28;20442;-60
2022/08/15 04:25:02;;;;;;;19.70;17.77;;;21.00;99.90;;;;;;5114082;28;20446;-60
2022/08/15 04:27:28;;;;;;;18.23;16.60;;;21.00;99.90;;;;;;5114037;28;20965;-60
2022/08/15 04:29:55;;;;;;;17.13;15.53;;;21.10;99.90;;;;;;5114008;28;20481;-60
2022/08/15 04:32:26;;;;;;;18.20;16.60;;;21.30;99.90;;;;;;5114022;28;20536;-60
2022/08/15 04:34:54;;;;;;;18.87;16.90;;;21.10;99.90;;;;;;5113948;28;20449;-60
2022/08/15 04:37:21;;;;;;;18.43;16.83;;;21.10;99.90;;;;;;5114108;28;20481;-60
2022/08/15 04:39:50;;;;;;;18.40;16.70;;;21.10;99.90;;;;;;5114024;28;20999;-60
2022/08/15 04:42:18;;;;;;;17.40;15.80;;;21.00;99.90;;;;;;5113694;28;20919;-60
2022/08/15 04:44:45;;;;;;;17.90;16.10;;;21.20;99.90;;;;;;5113870;28;20446;-60
2022/08/15 04:47:12;;;;;;;17.87;16.33;;;21.20;99.90;;;;;;5113430;28;20946;-61
2022/08/15 04:49:39;;;;;;;18.73;17.07;;;21.10;99.90;;;;;;5113505;28;20488;-60
2022/08/15 04:52:08;;;;;;;17.60;15.77;;;21.20;99.90;;;;;;5113860;28;20524;-60
2022/08/15 04:54:35;;;;;;;16.77;15.30;;;21.50;99.90;;;;;;5113712;28;20778;-60
2022/08/15 04:57:02;;;;;;;18.00;16.30;;;21.60;99.90;;;;;;5113772;28;20470;-60
2022/08/15 04:59:28;;;;;;;16.47;14.90;;;21.60;99.90;;;;;;5113537;28;20446;-60
2022/08/15 05:01:56;;;;;;;17.87;16.10;;;21.70;99.90;;;;;;5113481;28;20555;-60
2022/08/15 05:04:22;;;;;;;19.50;16.60;;;21.80;99.90;;;;;;5113594;28;20503;-60
2022/08/15 05:06:50;;;;;;;17.80;16.30;;;21.80;99.90;;;;;;5113627;28;20471;-60
2022/08/15 05:09:17;;;;;;;17.77;15.97;;;21.60;99.90;;;;;;5113474;28;20488;-60
2022/08/15 05:11:43;;;;;;;18.13;16.47;;;21.50;99.90;;;;;;5113399;28;20457;-60
2022/08/15 05:14:10;;;;;;;18.70;17.07;;;21.40;99.90;;;;;;5113420;28;20454;-60
2022/08/15 05:16:36;;;;;;;17.57;16.03;;;21.40;99.90;;;;;;5113197;28;20816;-60
2022/08/15 05:19:03;;;;;;;17.00;15.50;;;21.40;99.90;;;;;;5113217;28;20925;-60
2022/08/15 05:21:30;;;;;;;18.10;16.30;;;21.50;99.90;;;;;;5113349;28;20533;-60
2022/08/15 05:23:58;;;;;;;17.63;16.10;;;21.40;99.90;;;;;;5113288;28;20941;-60
2022/08/15 05:26:24;;;;;;;19.70;17.57;;;21.40;99.90;;;;;;5113340;28;20451;-60
2022/08/15 05:28:51;;;;;;;17.53;15.83;;;21.60;99.90;;;;;;5113047;28;20840;-60
2022/08/15 05:31:17;;;;;;;16.60;14.93;;;21.70;99.90;;;;;;5113433;28;20536;-60
2022/08/15 05:33:46;;;;;;;18.43;16.73;;;21.90;99.90;;;;;;5113190;28;20450;-61
2022/08/15 05:36:14;;;;;;;16.20;14.70;;;21.80;99.90;;;;;;5113178;28;20862;-60
2022/08/15 05:38:46;;;;;;;17.93;16.07;;;21.90;99.90;;;;;;5113150;28;20473;-60
2022/08/15 05:41:25;;;;;;;17.47;15.97;;;21.90;99.90;;;;;;5112995;28;20786;-60
2022/08/15 05:44:01;;;;;;;18.40;16.80;;;21.70;99.90;;;;;;5112917;28;20772;-60
2022/08/15 05:46:41;;;;;;;16.90;15.30;;;22.00;99.90;;;;;;5115923;28;20453;-60
2022/08/15 05:49:16;;;;;;;18.20;16.33;;;22.00;99.90;;;;;;5117132;28;20473;-60
2022/08/15 05:51:48;;;;;;;18.30;16.80;;;22.20;99.90;;;;;;5117012;28;20441;-60
2022/08/15 05:54:22;;;;;;;17.37;15.77;;;22.10;99.90;;;;;;5116882;27;20448;-60
2022/08/15 05:57:02;;;;;;;17.47;15.67;;;22.10;99.90;;;;;;5117065;28;20449;-60
2022/08/15 05:59:34;;;;;;;17.30;15.87;;;22.40;99.90;;;;;;5116697;28;20485;-60
2022/08/15 06:02:09;;;;;;;18.10;16.40;;;22.40;99.90;;;;;;5116834;28;20849;-60
2022/08/15 06:04:44;;;;;;;16.07;14.67;;;22.40;99.90;;;;;;5116771;28;20445;-60
2022/08/15 06:07:14;;;;;;;17.37;15.77;;;22.40;99.90;;;;;;5116858;28;20800;-60
2022/08/15 06:09:45;;;;;;;15.63;14.20;;;22.50;99.90;;;;;;5116654;28;20476;-60
2022/08/15 06:12:20;;;;;;;15.57;14.07;;;22.80;99.90;;;;;;5116559;28;20956;-60
2022/08/15 06:14:51;;;;;;;18.40;15.40;;;22.90;99.90;;;;;;5116494;28;20855;-60
2022/08/15 06:17:22;;;;;;;15.97;14.47;;;22.90;99.90;;;;;;5116779;28;20455;-60
2022/08/15 06:19:51;;;;;;;17.17;15.53;;;22.70;99.90;;;;;;5113808;28;20464;-60
2022/08/15 06:22:29;;;;;;;16.00;14.30;;;22.90;99.90;;;;;;5105063;28;20450;-59
2022/08/15 06:25:08;;;;;;;17.17;15.43;;;22.90;99.90;;;;;;5101411;28;20447;-58
2022/08/15 06:27:45;;;;;;;14.70;13.20;;;23.10;99.90;;;;;;5116598;28;20877;-57
2022/08/15 06:30:15;;;;;;;15.20;13.60;;;23.40;99.90;;;;;;5116310;28;20575;-58
2022/08/15 06:32:49;;;;;;;14.17;12.97;;;23.60;99.90;;;;;;5115950;28;20533;-59
2022/08/15 06:35:23;;;;;;;14.10;12.80;;;23.70;99.90;;;;;;5115852;28;20459;-59
2022/08/15 06:38:00;;;;;;;13.17;12.03;;;24.00;99.90;;;;;;5115703;28;21058;-59
2022/08/15 06:40:34;;;;;;;14.07;12.60;;;24.10;99.90;;;;;;5114062;28;20449;-59
2022/08/15 06:43:02;;;;;;;13.40;12.20;;;24.30;99.90;;;;;;5116094;28;20481;-59
2022/08/15 06:45:31;;;;;;;14.30;13.07;;;24.30;99.90;;;;;;5115546;28;20449;-59
2022/08/15 06:48:03;;;;;;;17.73;13.87;;;24.20;99.90;;;;;;5115216;28;20477;-59
2022/08/15 06:50:33;;;;;;;15.20;13.70;;;23.70;99.90;;;;;;5115255;28;20984;-58
2022/08/15 06:53:07;;;;;;;13.90;12.60;;;23.50;99.90;;;;;;5115113;28;20516;-58
2022/08/15 06:55:42;;;;;;;14.43;13.03;;;23.80;99.90;;;;;;5115422;28;20448;-58
2022/08/15 06:58:16;;;;;;;13.20;11.90;;;23.90;99.90;;;;;;5112803;28;20446;-58
2022/08/15 07:00:46;;;;;;;14.00;12.83;;;23.80;99.90;;;;;;5115403;28;20449;-58
2022/08/15 07:03:20;;;;;;;11.57;10.67;;;23.70;99.90;;;;;;5115231;28;20445;-59
2022/08/15 07:05:51;;;;;;;12.67;11.67;;;24.00;99.90;;;;;;5115096;28;20451;-58
2022/08/15 07:08:28;;;;;;;12.93;11.83;;;24.00;99.90;;;;;;5115077;28;20932;-58
2022/08/15 07:11:02;;;;;;;12.93;11.83;;;23.90;99.90;;;;;;5112920;28;20547;-60
2022/08/15 07:13:42;;;;;;;12.63;11.63;;;24.00;99.90;;;;;;5114824;28;20446;-59
2022/08/15 07:16:17;;;;;;;11.90;10.70;;;24.20;99.90;;;;;;5115185;28;20959;-59
2022/08/15 07:18:47;;;;;;;12.50;11.50;;;24.50;99.90;;;;;;5114858;28;20445;-58
2022/08/15 07:21:17;;;;;;;14.33;13.10;;;24.50;99.90;;;;;;5114905;28;20533;-58
2022/08/15 07:24:03;;;;;;;12.50;11.40;;;24.20;99.90;;;;;;5114627;28;20869;-59
2022/08/15 07:26:33;;;;;;;12.93;11.73;;;24.40;99.90;;;;;;5114053;28;20446;-59
2022/08/15 07:29:08;;;;;;;13.23;12.00;;;24.80;99.90;;;;;;5114719;28;20442;-59
2022/08/15 07:31:36;;;;;;;14.13;12.70;;;25.00;99.90;;;;;;5111852;28;20451;-59
2022/08/15 07:34:05;;;;;;;12.33;11.03;;;25.10;99.90;;;;;;5114704;28;20558;-59
2022/08/15 07:36:34;;;;;;;11.17;10.27;;;25.30;99.90;;;;;;5115180;28;20736;-59
2022/08/15 07:39:19;;;;;;;12.07;11.07;;;25.30;99.90;;;;;;5115031;28;20472;-59
2022/08/15 07:41:46;;;;;;;12.80;11.70;;;25.10;99.90;;;;;;5114920;28;20449;-59
2022/08/15 07:44:21;;;;;;;12.93;11.80;;;25.50;99.90;;;;;;5114592;28;20450;-59
2022/08/15 07:46:52;;;;;;;13.07;11.87;;;25.30;99.90;;;;;;5114540;28;20455;-59
2022/08/15 07:49:24;;;;;;;13.90;12.57;;;25.30;99.90;;;;;;5114223;28;20454;-59
2022/08/15 07:52:00;;;;;;;11.90;11.00;;;24.90;99.90;;;;;;5114280;28;20546;-58
2022/08/15 07:54:29;;;;;;;13.50;12.30;;;24.70;99.90;;;;;;5112132;28;20441;-59
2022/08/15 07:56:58;;;;;;;11.67;10.67;;;25.00;99.90;;;;;;5114488;28;20547;-58
2022/08/15 07:59:30;;;;;;;12.47;11.30;;;25.30;99.90;;;;;;5114534;28;20446;-59
2022/08/15 08:02:05;;;;;;;12.00;10.90;;;25.40;99.90;;;;;;5114764;28;20446;-59
2022/08/15 08:04:33;;;;;;;11.67;10.67;;;25.70;99.90;;;;;;5113850;28;20842;-59
2022/08/15 08:07:05;;;;;;;13.23;12.13;;;25.80;99.90;;;;;;5113879;28;20437;-59
2022/08/15 08:09:39;;;;;;;13.20;12.10;;;25.50;99.90;;;;;;5113388;28;20477;-59
2022/08/15 08:12:16;;;;;;;11.80;10.70;;;25.50;99.90;;;;;;5114095;28;20552;-59
2022/08/15 08:15:02;;;;;;;14.33;13.03;;;25.90;99.90;;;;;;5111857;28;20948;-58
2022/08/15 08:17:33;;;;;;;12.60;11.60;;;25.80;99.90;;;;;;5114257;28;20542;-58
2022/08/15 08:20:06;;;;;;;15.77;12.80;;;25.80;99.90;;;;;;5113803;28;20442;-58
2022/08/15 08:22:44;;;;;;;13.60;12.60;;;25.80;99.90;;;;;;5111068;28;20477;-58
2022/08/15 08:25:20;;;;;;;13.53;12.43;;;25.70;99.90;;;;;;5113533;28;20952;-58
2022/08/15 08:27:57;;;;;;;12.93;11.87;;;25.90;99.90;;;;;;5113514;28;20445;-59
2022/08/15 08:30:30;;;;;;;14.50;13.17;;;26.00;99.90;;;;;;5113201;28;20475;-59
2022/08/15 08:32:59;;;;;;;13.03;12.00;;;26.10;99.90;;;;;;5111020;28;20532;-59
2022/08/15 08:35:38;;;;;;;12.60;11.30;;;26.30;99.90;;;;;;5110775;28;20529;-59
2022/08/15 08:38:20;;;;;;;13.10;11.90;;;26.50;99.90;;;;;;5113231;28;20441;-59
2022/08/15 08:43:49;;;;;;;12.70;11.43;;;26.70;99.90;;;;;;5111456;28;20437;-59
2022/08/15 08:46:33;;;;;;;11.50;10.37;;;26.90;99.90;;;;;;5111067;28;20441;-59
2022/08/15 08:49:09;;;;;;;12.00;10.70;;;27.20;99.90;;;;;;5113709;28;20473;-59
2022/08/15 08:51:44;;;;;;;10.77;9.83;;;27.10;99.90;;;;;;5113988;28;21066;-60
2022/08/15 08:54:15;;;;;;;12.17;11.17;;;27.10;99.90;;;;;;5113642;28;20449;-59
2022/08/15 08:56:46;;;;;;;12.60;11.50;;;27.40;99.90;;;;;;5113165;28;20477;-59
2022/08/15 08:59:19;;;;;;;12.60;11.50;;;27.60;99.90;;;;;;5113297;28;20529;-59
2022/08/15 09:01:53;;;;;;;12.03;11.03;;;27.10;99.90;;;;;;5111462;28;20524;-59
2022/08/15 09:04:29;;;;;;;13.20;12.10;;;27.10;99.90;;;;;;5113832;28;20532;-59
2022/08/15 09:06:57;;;;;;;12.00;10.80;;;27.30;99.90;;;;;;5113445;28;20942;-59
2022/08/15 09:09:30;;;;;;;12.30;11.30;;;27.40;99.90;;;;;;5113324;28;20442;-59
2022/08/15 09:12:01;;;;;;;11.97;11.03;;;27.60;99.90;;;;;;5113226;28;20487;-59
2022/08/15 09:14:31;;;;;;;12.90;11.90;;;26.70;99.90;;;;;;5113494;28;20931;-59
2022/08/15 09:17:03;;;;;;;11.90;10.93;;;27.20;99.90;;;;;;5113595;28;20476;-59
2022/08/15 09:19:39;;;;;;;10.60;9.90;;;27.30;99.90;;;;;;5113095;28;20445;-59
2022/08/15 09:22:06;;;;;;;11.80;10.70;;;27.40;99.90;;;;;;5112936;28;20445;-59
2022/08/15 09:24:33;;;;;;;11.00;10.07;;;27.20;99.90;;;;;;5112759;28;20858;-60
2022/08/15 09:27:07;;;;;;;10.37;9.43;;;27.50;99.90;;;;;;5113189;28;20839;-59
2022/08/15 09:29:36;;;;;;;10.37;9.50;;;27.70;99.90;;;;;;5112659;28;20438;-59
2022/08/15 09:32:19;;;;;;;10.30;9.50;;;28.10;99.90;;;;;;5112662;28;20474;-59
2022/08/15 09:35:08;;;;;;;11.57;10.67;;;27.90;99.90;;;;;;5092636;28;20447;-60
2022/08/15 09:37:45;;;;;;;11.00;10.17;;;27.80;99.90;;;;;;5092825;28;20450;-59
2022/08/15 09:40:50;;;;;;;11.57;10.67;;;27.60;99.90;;;;;;5107711;28;20897;-59
2022/08/15 09:43:38;;;;;;;12.50;11.30;;;27.70;99.90;;;;;;5096558;28;20449;-60
2022/08/15 09:46:47;;;;;;;11.57;10.47;;;28.10;99.90;;;;;;5111950;28;20473;-59
2022/08/15 09:49:28;;;;;;;11.17;10.17;;;28.10;99.90;;;;;;5110221;28;20441;-59
2022/08/15 09:52:09;;;;;;;11.03;10.03;;;28.10;99.90;;;;;;5110526;28;20474;-60
2022/08/15 09:54:45;;;;;;;11.23;10.20;;;28.20;99.90;;;;;;5112734;28;21013;-59
2022/08/15 09:57:23;;;;;;;9.70;9.00;;;28.50;99.90;;;;;;5112332;28;20532;-59
2022/08/15 09:59:52;;;;;;;10.33;9.43;;;28.80;99.90;;;;;;5112362;28;20465;-60
2022/08/15 10:02:23;;;;;;;10.30;9.50;;;29.10;99.90;;;;;;5112858;28;20520;-59
2022/08/15 10:05:15;;;;;;;10.87;9.97;;;29.30;99.90;;;;;;5112930;28;20630;-59
2022/08/15 10:07:46;;;;;;;9.90;9.10;;;28.80;99.90;;;;;;5112771;28;20503;-59
2022/08/15 10:10:18;;;;;;;11.37;10.47;;;28.60;99.90;;;;;;5112488;28;20488;-59
2022/08/15 10:13:11;;;;;;;10.40;9.70;;;27.90;99.90;;;;;;5112424;28;20471;-59
2022/08/15 10:15:41;;;;;;;10.73;9.80;;;27.80;99.90;;;;;;5110919;28;21028;-59
2022/08/15 10:18:08;;;;;;;9.43;8.73;;;28.00;99.90;;;;;;5112434;28;20514;-59
2022/08/15 10:21:17;;;;;;;9.47;8.77;;;28.20;99.90;;;;;;5112533;28;20536;-60
2022/08/15 10:23:46;;;;;;;8.77;8.17;;;28.50;99.90;;;;;;5112414;28;20933;-60
2022/08/15 10:26:23;;;;;;;8.60;7.90;;;28.80;99.90;;;;;;5112537;28;20811;-60
2022/08/15 10:29:05;;;;;;;9.97;8.67;;;28.60;99.90;;;;;;5112515;28;20445;-60
2022/08/15 10:31:40;;;;;;;9.80;9.00;;;28.80;99.90;;;;;;5113671;28;20567;-59
2022/08/15 10:34:18;;;;;;;9.63;8.93;;;28.70;99.90;;;;;;5116265;28;20527;-60
2022/08/15 10:37:09;;;;;;;9.87;8.97;;;28.40;99.90;;;;;;5116071;28;20948;-60
2022/08/15 10:39:48;;;;;;;9.10;8.50;;;28.60;99.90;;;;;;5115450;28;20467;-59
2022/08/15 10:42:26;;;;;;;9.40;8.50;;;28.80;99.90;;;;;;5113558;28;20532;-59
2022/08/15 10:45:02;;;;;;;8.77;8.07;;;29.10;99.90;;;;;;5113168;28;20463;-60
2022/08/15 10:47:37;;;;;;;9.70;8.90;;;29.30;99.90;;;;;;5115155;28;20502;-60
2022/08/15 10:50:14;;;;;;;9.00;8.20;;;28.90;99.90;;;;;;5115524;28;20434;-60
2022/08/15 10:52:59;;;;;;;10.00;9.07;;;28.90;99.90;;;;;;5115432;28;20445;-60
2022/08/15 10:55:29;;;;;;;9.03;8.33;;;28.40;99.90;;;;;;5113070;28;20433;-60
2022/08/15 10:58:00;;;;;;;9.90;8.87;;;28.60;99.90;;;;;;5115361;28;20524;-60
2022/08/15 11:00:38;;;;;;;8.70;7.97;;;29.00;99.90;;;;;;5112716;28;20441;-60
2022/08/15 11:03:12;;;;;;;10.10;9.40;;;29.30;99.90;;;;;;5112682;28;20448;-60
2022/08/15 11:05:39;;;;;;;9.43;8.70;;;29.50;99.90;;;;;;5115250;28;20536;-60
2022/08/15 11:08:13;;;;;;;8.87;8.30;;;29.80;99.90;;;;;;5115275;28;20442;-59
2022/08/15 11:10:40;;;;;;;10.00;9.30;;;29.60;99.90;;;;;;5115001;28;20465;-59
2022/08/15 11:13:10;;;;;;;9.10;8.50;;;29.20;99.90;;;;;;5115457;28;20441;-60
2022/08/15 11:15:49;;;;;;;9.93;9.10;;;29.60;99.90;;;;;;5114792;28;20452;-60
2022/08/15 11:18:27;;;;;;;8.87;8.27;;;29.90;99.90;;;;;;5114860;27;20452;-60
2022/08/15 11:20:57;;;;;;;10.40;9.27;;;30.10;99.90;;;;;;5113653;28;20470;-60
2022/08/15 11:23:39;;;;;;;10.00;9.10;;;30.60;99.90;;;;;;5112826;28;20528;-59
2022/08/15 11:26:08;;;;;;;9.43;8.73;;;30.50;99.90;;;;;;5115313;28;20941;-59
2022/08/15 11:28:35;;;;;;;13.27;9.00;;;29.90;99.90;;;;;;5115058;28;20445;-59
2022/08/15 11:31:04;;;;;;;9.43;8.60;;;30.40;99.90;;;;;;5115102;28;20568;-60
2022/08/15 11:33:41;;;;;;;10.70;9.80;;;29.80;99.90;;;;;;5094862;28;20457;-59
2022/08/15 11:36:12;;;;;;;8.90;8.20;;;29.60;99.90;;;;;;5094910;28;20449;-60
2022/08/15 11:38:43;;;;;;;9.37;8.67;;;29.70;99.90;;;;;;5094725;28;20443;-59
2022/08/15 11:41:17;;;;;;;10.70;9.80;;;29.80;99.90;;;;;;5094643;28;20454;-59
2022/08/15 11:43:44;;;;;;;10.13;9.23;;;29.20;99.90;;;;;;5093807;28;20455;-59
2022/08/15 11:46:11;;;;;;;10.10;9.30;;;29.30;99.90;;;;;;5094167;28;20748;-59
2022/08/15 11:48:39;;;;;;;9.77;8.97;;;29.60;99.90;;;;;;5094251;28;20556;-59
2022/08/15 11:51:10;;;;;;;9.80;8.97;;;30.00;99.90;;;;;;5094368;28;20475;-59
2022/08/15 11:53:42;;;;;;;9.10;8.50;;;29.90;99.90;;;;;;5094367;28;20805;-60
2022/08/15 11:56:09;;;;;;;9.30;8.70;;;30.20;99.90;;;;;;5094164;28;20454;-60
2022/08/15 11:58:38;;;;;;;9.90;8.97;;;30.00;99.90;;;;;;5094190;28;20453;-59
2022/08/15 12:01:27;;;;;;;10.17;9.27;;;30.00;99.90;;;;;;5094255;28;20445;-59
2022/08/15 12:04:04;;;;;;;9.80;8.90;;;30.00;99.90;;;;;;5094150;28;20443;-60
2022/08/15 12:06:33;;;;;;;9.40;8.60;;;29.90;99.90;;;;;;5093875;28;20442;-59
2022/08/15 12:09:13;;;;;;;9.50;8.83;;;29.70;99.90;;;;;;5093769;28;20446;-60
2022/08/15 12:11:44;;;;;;;10.17;9.30;;;29.80;99.90;;;;;;5093808;28;20564;-59
2022/08/15 12:14:18;;;;;;;12.23;8.80;;;29.50;99.90;;;;;;5093763;28;20512;-59
2022/08/15 12:16:48;;;;;;;10.37;9.13;;;29.70;99.90;;;;;;5093729;28;20964;-59
2022/08/15 12:19:42;;;;;;;9.90;9.20;;;30.00;99.90;;;;;;5093809;28;20542;-60
2022/08/15 12:22:13;;;;;;;9.60;8.87;;;30.30;99.90;;;;;;5075556;28;20496;-60
2022/08/15 12:24:43;;;;;;;11.20;9.87;;;30.40;99.90;;;;;;5093784;28;20450;-60
2022/08/15 12:27:10;;;;;;;8.40;7.70;;;30.40;99.90;;;;;;5093643;28;20450;-59
2022/08/15 12:29:38;;;;;;;8.27;7.57;;;30.10;99.90;;;;;;5093523;28;20453;-59
2022/08/15 12:32:07;;;;;;;8.50;7.80;;;29.90;99.90;;;;;;5093330;28;20478;-59
2022/08/15 12:34:37;;;;;;;8.47;7.77;;;30.10;99.90;;;;;;5093543;28;20461;-60
2022/08/15 12:37:07;;;;;;;9.20;8.40;;;30.30;99.90;;;;;;5093514;28;20438;-60
2022/08/15 12:39:36;;;;;;;9.37;8.67;;;30.40;99.90;;;;;;5093443;28;20546;-59
2022/08/15 12:42:04;;;;;;;8.77;8.17;;;30.50;99.90;;;;;;5093245;28;20902;-60
2022/08/15 12:44:35;;;;;;;10.30;9.00;;;30.50;99.90;;;;;;5093105;28;20811;-59
2022/08/15 12:47:02;;;;;;;8.07;7.37;;;30.60;99.90;;;;;;5093047;28;21060;-60
2022/08/15 12:49:28;;;;;;;9.57;8.67;;;30.70;99.90;;;;;;5093453;28;20545;-60
2022/08/15 12:51:55;;;;;;;8.20;7.70;;;31.10;99.90;;;;;;5093286;28;21024;-59
2022/08/15 12:54:21;;;;;;;9.03;8.43;;;30.70;99.90;;;;;;5092675;28;20547;-60
2022/08/15 12:56:48;;;;;;;9.10;8.50;;;30.60;99.90;;;;;;5092709;28;20446;-60
2022/08/15 12:59:16;;;;;;;8.97;8.07;;;30.70;99.90;;;;;;5093330;28;20572;-60